createdAt,value
2018-02-25T00:01:05.792Z,5.63
2018-02-25T00:03:34.068Z,5.68
2018-02-25T00:06:02.311Z,7.65
2018-02-25T00:08:30.601Z,5.78
2018-02-25T00:10:58.924Z,7.57
2018-02-25T00:13:27.262Z,7.15
2018-02-25T00:15:55.464Z,4.93
2018-02-25T00:18:23.778Z,7.05
2018-02-25T00:20:52.005Z,5.82
2018-02-25T00:23:20.347Z,5.30
2018-02-25T00:25:48.595Z,4.62
2018-02-25T00:28:16.858Z,6.10
2018-02-25T00:30:45.093Z,6.15
2018-02-25T00:33:14.113Z,5.70
2018-02-25T00:35:42.398Z,5.65
2018-02-25T00:38:10.689Z,5.72
2018-02-25T00:40:38.895Z,5.40
2018-02-25T00:43:07.173Z,5.80
2018-02-25T00:45:35.378Z,6.00
2018-02-25T00:48:03.685Z,8.00
2018-02-25T00:50:31.909Z,5.37
2018-02-25T00:53:00.177Z,8.00
2018-02-25T00:55:28.394Z,5.62
2018-02-25T00:57:56.687Z,5.75
2018-02-25T01:00:24.942Z,7.62
2018-02-25T01:02:53.238Z,5.47
2018-02-25T01:05:21.464Z,6.47
2018-02-25T01:07:49.700Z,5.37
2018-02-25T01:10:17.939Z,5.53
2018-02-25T01:12:46.180Z,6.50
2018-02-25T01:15:14.441Z,5.93
2018-02-25T01:17:42.688Z,6.53
2018-02-25T01:20:10.917Z,6.10
2018-02-25T01:22:39.230Z,6.35
2018-02-25T01:25:07.512Z,6.35
2018-02-25T01:27:35.781Z,5.10
2018-02-25T01:30:04.057Z,5.85
2018-02-25T01:32:32.353Z,5.87
2018-02-25T01:35:00.610Z,5.73
2018-02-25T01:37:28.895Z,3.90
2018-02-25T01:39:57.147Z,8.87
2018-02-25T01:42:26.176Z,8.57
2018-02-25T01:44:54.429Z,6.50
2018-02-25T01:47:22.713Z,6.47
2018-02-25T01:49:50.974Z,7.60
2018-02-25T01:52:19.958Z,7.80
2018-02-25T01:54:48.968Z,7.03
2018-02-25T01:57:17.207Z,6.53
2018-02-25T01:59:45.453Z,6.53
2018-02-25T02:02:13.687Z,6.62
2018-02-25T02:04:42.717Z,8.07
2018-02-25T02:07:10.982Z,6.95
2018-02-25T02:09:39.254Z,9.05
2018-02-25T02:12:07.554Z,7.60
2018-02-25T02:14:35.810Z,6.20
2018-02-25T02:17:04.090Z,7.03
2018-02-25T02:19:32.331Z,7.50
2018-02-25T02:22:01.342Z,7.20
2018-02-25T02:24:29.638Z,7.43
2018-02-25T02:26:57.926Z,7.20
2018-02-25T02:29:26.186Z,7.18
2018-02-25T02:31:54.423Z,8.90
2018-02-25T02:34:23.431Z,7.35
2018-02-25T02:36:52.453Z,9.75
2018-02-25T02:39:20.729Z,7.32
2018-02-25T02:41:48.981Z,7.18
2018-02-25T02:44:17.226Z,7.62
2018-02-25T02:46:45.500Z,7.03
2018-02-25T02:49:13.727Z,7.43
2018-02-25T02:51:41.971Z,7.53
2018-02-25T02:54:10.993Z,6.80
2018-02-25T02:56:39.252Z,8.07
2018-02-25T02:59:08.261Z,6.70
2018-02-25T03:01:36.550Z,7.90
2018-02-25T03:04:04.818Z,7.20
2018-02-25T03:06:33.030Z,8.27
2018-02-25T03:09:01.288Z,6.43
2018-02-25T03:11:29.516Z,6.87
2018-02-25T03:13:57.833Z,7.32
2018-02-25T03:16:26.077Z,6.57
2018-02-25T03:18:55.121Z,6.70
2018-02-25T03:21:23.384Z,7.37
2018-02-25T03:23:51.623Z,6.75
2018-02-25T03:26:20.628Z,5.70
2018-02-25T03:28:49.662Z,7.90
2018-02-25T03:31:17.898Z,7.57
2018-02-25T03:33:46.890Z,6.12
2018-02-25T03:36:15.914Z,6.78
2018-02-25T03:38:44.177Z,6.43
2018-02-25T03:41:12.391Z,6.85
2018-02-25T03:43:40.741Z,8.20
2018-02-25T03:46:09.007Z,7.07
2018-02-25T03:48:37.295Z,9.00
2018-02-25T03:51:05.532Z,6.10
2018-02-25T03:53:34.593Z,10.13
2018-02-25T03:56:02.835Z,6.57
2018-02-25T03:58:31.106Z,6.18
2018-02-25T04:00:59.328Z,7.78
2018-02-25T04:03:27.569Z,6.75
2018-02-25T04:05:55.828Z,5.75
2018-02-25T04:08:24.047Z,6.00
2018-02-25T04:10:52.395Z,5.70
2018-02-25T04:13:20.676Z,6.37
2018-02-25T04:15:48.952Z,6.87
2018-02-25T04:18:17.217Z,6.72
2018-02-25T04:20:45.482Z,7.47
2018-02-25T04:23:14.471Z,7.35
2018-02-25T04:25:43.593Z,6.20
2018-02-25T04:28:11.831Z,7.30
2018-02-25T04:30:40.846Z,6.07
2018-02-25T04:33:09.140Z,5.35
2018-02-25T04:35:37.377Z,7.05
2018-02-25T04:38:06.385Z,5.82
2018-02-25T04:40:35.454Z,6.40
2018-02-25T04:43:03.672Z,7.28
2018-02-25T04:45:31.897Z,7.22
2018-02-25T04:48:00.220Z,6.65
2018-02-25T04:50:29.117Z,9.38
2018-02-25T04:52:57.365Z,8.35
2018-02-25T04:55:26.396Z,6.90
2018-02-25T04:57:54.621Z,7.25
2018-02-25T05:00:22.935Z,6.87
2018-02-25T05:02:51.200Z,7.30
2018-02-25T05:05:20.313Z,6.95
2018-02-25T05:07:48.612Z,6.40
2018-02-25T05:10:16.846Z,6.43
2018-02-25T05:12:46.455Z,6.40
2018-02-25T05:15:15.506Z,5.97
2018-02-25T05:17:43.727Z,6.82
2018-02-25T05:20:12.747Z,6.10
2018-02-25T05:22:40.986Z,6.15
2018-02-25T05:25:10.013Z,8.38
2018-02-25T05:27:38.345Z,6.97
2018-02-25T05:30:06.545Z,7.12
2018-02-25T05:32:35.562Z,8.93
2018-02-25T05:35:03.829Z,7.73
2018-02-25T05:37:32.115Z,7.45
2018-02-25T05:40:00.327Z,5.75
2018-02-25T05:42:28.555Z,7.10
2018-02-25T05:44:56.838Z,7.03
2018-02-25T05:47:25.053Z,7.72
2018-02-25T05:49:53.292Z,7.93
2018-02-25T05:52:21.543Z,6.03
2018-02-25T05:54:50.532Z,7.65
2018-02-25T05:57:19.548Z,7.40
2018-02-25T05:59:47.777Z,6.50
2018-02-25T06:02:16.021Z,6.10
2018-02-25T06:04:44.252Z,8.80
2018-02-25T06:07:12.518Z,8.05
2018-02-25T06:09:41.542Z,8.48
2018-02-25T06:12:09.764Z,6.93
2018-02-25T06:14:38.040Z,6.47
2018-02-25T06:17:06.282Z,9.07
2018-02-25T06:19:34.552Z,7.13
2018-02-25T06:22:02.776Z,7.40
2018-02-25T06:24:31.814Z,7.68
2018-02-25T06:27:00.193Z,7.80
2018-02-25T06:29:28.413Z,6.75
2018-02-25T06:31:56.688Z,7.72
2018-02-25T06:34:24.926Z,8.73
2018-02-25T06:36:53.153Z,8.43
2018-02-25T06:39:21.634Z,10.10
2018-02-25T06:41:50.003Z,8.98
2018-02-25T06:44:18.244Z,8.18
2018-02-25T06:46:46.493Z,8.38
2018-02-25T06:49:15.535Z,8.20
2018-02-25T06:51:43.804Z,6.87
2018-02-25T06:54:12.014Z,8.52
2018-02-25T06:56:40.352Z,10.52
2018-02-25T06:59:08.616Z,10.60
2018-02-25T07:01:36.896Z,11.65
2018-02-25T07:04:05.131Z,7.95
2018-02-25T07:06:33.442Z,9.27
2018-02-25T07:09:01.705Z,9.52
2018-02-25T07:11:29.948Z,8.50
2018-02-25T07:13:58.288Z,8.13
2018-02-25T07:16:26.613Z,8.57
2018-02-25T07:18:55.707Z,7.47
2018-02-25T07:21:24.037Z,8.80
2018-02-25T07:23:52.387Z,7.60
2018-02-25T07:26:20.707Z,7.85
2018-02-25T07:28:49.118Z,9.10
2018-02-25T07:31:17.461Z,7.60
2018-02-25T07:33:45.711Z,7.90
2018-02-25T07:36:13.933Z,7.03
2018-02-25T07:38:42.162Z,7.60
2018-02-25T07:41:10.400Z,6.82
2018-02-25T07:43:38.665Z,9.63
2018-02-25T07:46:06.926Z,8.98
2018-02-25T07:48:35.286Z,7.57
2018-02-25T07:51:03.655Z,8.90
2018-02-25T07:53:31.936Z,7.25
2018-02-25T07:56:00.154Z,8.45
2018-02-25T07:58:28.413Z,7.50
2018-02-25T08:00:56.683Z,6.53
2018-02-25T08:03:24.954Z,8.50
2018-02-25T08:05:53.292Z,6.90
2018-02-25T08:08:21.610Z,5.43
2018-02-25T08:10:49.753Z,7.40
2018-02-25T08:13:18.776Z,6.80
2018-02-25T08:15:47.030Z,5.60
2018-02-25T08:18:15.294Z,5.90
2018-02-25T08:20:44.345Z,5.05
2018-02-25T08:23:12.565Z,6.10
2018-02-25T08:25:41.642Z,5.15
2018-02-25T08:28:10.662Z,6.37
2018-02-25T08:30:38.880Z,5.47
2018-02-25T08:33:07.132Z,6.15
2018-02-25T08:35:35.408Z,5.62
2018-02-25T08:38:03.734Z,5.62
2018-02-25T08:40:32.015Z,5.82
2018-02-25T08:43:00.326Z,4.57
2018-02-25T08:45:28.588Z,6.03
2018-02-25T08:47:57.636Z,5.97
2018-02-25T08:50:25.882Z,6.97
2018-02-25T08:52:54.168Z,8.25
2018-02-25T08:55:22.399Z,6.37
2018-02-25T08:57:51.423Z,4.70
2018-02-25T09:00:19.660Z,6.15
2018-02-25T09:02:47.944Z,6.65
2018-02-25T09:05:16.165Z,3.92
2018-02-25T09:07:44.430Z,5.37
2018-02-25T09:10:12.704Z,4.73
2018-02-25T09:12:40.922Z,5.18
2018-02-25T09:15:09.163Z,4.47
2018-02-25T09:17:37.413Z,6.05
2018-02-25T09:20:06.436Z,5.57
2018-02-25T09:22:34.649Z,4.75
2018-02-25T09:25:02.915Z,4.20
2018-02-25T09:27:31.150Z,3.87
2018-02-25T09:29:59.460Z,5.60
2018-02-25T09:32:27.693Z,6.90
2018-02-25T09:34:56.122Z,4.25
2018-02-25T09:37:24.365Z,5.45
2018-02-25T09:39:52.636Z,4.60
2018-02-25T09:42:20.849Z,5.28
2018-02-25T09:44:49.197Z,5.12
2018-02-25T09:47:17.412Z,7.80
2018-02-25T09:49:45.761Z,5.55
2018-02-25T09:52:14.066Z,6.60
2018-02-25T09:54:42.292Z,6.68
2018-02-25T09:57:10.537Z,5.90
2018-02-25T09:59:38.873Z,5.47
2018-02-25T10:02:07.123Z,4.68
2018-02-25T10:04:36.141Z,4.75
2018-02-25T10:07:04.424Z,4.00
2018-02-25T10:09:32.682Z,3.90
2018-02-25T10:12:00.931Z,5.97
2018-02-25T10:14:29.949Z,4.53
2018-02-25T10:16:58.184Z,7.07
2018-02-25T10:19:26.447Z,3.67
2018-02-25T10:21:54.651Z,2.50
2018-02-25T10:24:23.806Z,4.87
2018-02-25T10:26:52.058Z,5.70
2018-02-25T10:29:21.159Z,3.72
2018-02-25T10:31:49.358Z,5.12
2018-02-25T10:34:17.594Z,3.80
2018-02-25T10:36:45.867Z,4.82
2018-02-25T10:39:14.106Z,4.40
2018-02-25T10:41:42.348Z,5.28
2018-02-25T10:44:10.586Z,6.03
2018-02-25T10:46:38.810Z,3.30
2018-02-25T10:49:07.152Z,3.55
2018-02-25T10:51:35.411Z,4.33
2018-02-25T10:54:04.429Z,4.20
2018-02-25T10:56:32.658Z,4.18
2018-02-25T10:59:00.907Z,5.27
2018-02-25T11:01:29.146Z,3.33
2018-02-25T11:03:57.419Z,3.92
2018-02-25T11:06:25.712Z,3.87
2018-02-25T11:08:53.972Z,4.20
2018-02-25T11:11:22.289Z,4.47
2018-02-25T11:13:50.525Z,2.92
2018-02-25T11:16:18.806Z,4.03
2018-02-25T11:18:47.020Z,4.32
2018-02-25T11:21:16.086Z,2.90
2018-02-25T11:23:44.378Z,6.80
2018-02-25T11:26:12.609Z,3.47
2018-02-25T11:28:41.687Z,3.87
2018-02-25T11:31:09.886Z,3.50
2018-02-25T11:33:38.906Z,3.90
2018-02-25T11:36:07.178Z,3.55
2018-02-25T11:38:35.454Z,3.00
2018-02-25T11:41:03.685Z,3.95
2018-02-25T11:43:31.936Z,3.50
2018-02-25T11:46:00.161Z,3.58
2018-02-25T11:48:29.188Z,3.10
2018-02-25T11:50:57.458Z,3.55
2018-02-25T11:53:25.760Z,5.03
2018-02-25T11:55:53.970Z,4.35
2018-02-25T11:58:22.444Z,4.75
2018-02-25T12:00:50.795Z,6.43
2018-02-25T12:03:19.050Z,6.55
2018-02-25T12:05:47.276Z,7.87
2018-02-25T12:08:15.589Z,7.22
2018-02-25T12:10:43.879Z,3.40
2018-02-25T12:13:12.113Z,4.97
2018-02-25T12:15:41.167Z,5.72
2018-02-25T12:18:09.473Z,5.75
2018-02-25T12:20:37.685Z,5.10
2018-02-25T12:23:05.965Z,5.50
2018-02-25T12:25:34.209Z,4.40
2018-02-25T12:28:02.446Z,6.55
2018-02-25T12:30:30.660Z,4.22
2018-02-25T12:32:58.901Z,2.90
2018-02-25T12:35:27.172Z,5.22
2018-02-25T12:37:55.418Z,4.78
2018-02-25T12:40:23.698Z,4.35
2018-02-25T12:42:51.949Z,4.30
2018-02-25T12:45:20.940Z,5.63
2018-02-25T12:47:49.224Z,3.62
2018-02-25T12:50:17.433Z,3.63
2018-02-25T12:52:45.693Z,4.43
2018-02-25T12:55:13.971Z,4.40
2018-02-25T12:57:42.198Z,4.17
2018-02-25T13:00:10.434Z,8.93
2018-02-25T13:02:38.697Z,5.82
2018-02-25T13:05:06.945Z,5.23
2018-02-25T13:07:35.958Z,5.32
2018-02-25T13:10:04.938Z,7.87
2018-02-25T13:12:33.956Z,4.57
2018-02-25T13:15:02.271Z,5.07
2018-02-25T13:17:30.536Z,8.55
2018-02-25T13:19:58.857Z,5.97
2018-02-25T13:22:28.469Z,3.80
2018-02-25T13:24:56.830Z,3.25
2018-02-25T13:27:25.153Z,4.12
2018-02-25T13:29:53.377Z,6.72
2018-02-25T13:32:21.612Z,3.65
2018-02-25T13:34:49.943Z,3.60
2018-02-25T13:37:18.255Z,8.10
2018-02-25T13:39:46.494Z,4.07
2018-02-25T13:42:14.730Z,12.63
2018-02-25T13:44:42.995Z,6.07
2018-02-25T13:47:11.326Z,9.18
2018-02-25T13:49:39.546Z,4.00
2018-02-25T13:52:07.812Z,3.42
2018-02-25T13:54:36.069Z,4.37
2018-02-25T13:57:05.110Z,4.03
2018-02-25T13:59:33.327Z,3.00
2018-02-25T14:02:01.569Z,4.43
2018-02-25T14:04:29.935Z,3.55
2018-02-25T14:06:58.189Z,3.20
2018-02-25T14:09:27.174Z,3.90
2018-02-25T14:11:56.322Z,3.92
2018-02-25T14:14:24.621Z,3.55
2018-02-25T14:16:52.841Z,3.87
2018-02-25T14:19:21.122Z,3.75
2018-02-25T14:21:49.342Z,3.83
2018-02-25T14:24:17.663Z,4.35
2018-02-25T14:26:45.945Z,3.33
2018-02-25T14:29:14.221Z,3.20
2018-02-25T14:31:42.466Z,4.80
2018-02-25T14:34:11.503Z,3.08
2018-02-25T14:36:40.538Z,4.10
2018-02-25T14:39:08.770Z,3.22
2018-02-25T14:41:37.026Z,3.20
2018-02-25T14:44:06.024Z,5.22
2018-02-25T14:46:34.265Z,2.62
2018-02-25T14:49:02.503Z,3.25
2018-02-25T14:51:30.769Z,4.75
2018-02-25T14:53:59.025Z,3.60
2018-02-25T14:56:27.261Z,3.67
2018-02-25T14:58:55.502Z,3.58
2018-02-25T15:01:23.774Z,3.87
2018-02-25T15:03:52.053Z,5.10
2018-02-25T15:06:20.285Z,4.72
2018-02-25T15:08:49.275Z,7.53
2018-02-25T15:11:17.509Z,4.25
2018-02-25T15:13:45.758Z,8.93
2018-02-25T15:16:13.984Z,6.03
2018-02-25T15:18:42.213Z,3.50
2018-02-25T15:21:10.599Z,10.53
2018-02-25T15:23:39.603Z,7.25
2018-02-25T15:26:07.836Z,5.30
2018-02-25T15:28:36.845Z,3.30
2018-02-25T15:31:05.129Z,3.90
2018-02-25T15:33:34.166Z,4.53
2018-02-25T15:36:02.434Z,4.72
2018-02-25T15:38:30.690Z,3.57
2018-02-25T15:40:58.971Z,3.45
2018-02-25T15:43:27.240Z,3.78
2018-02-25T15:45:55.592Z,4.95
2018-02-25T15:48:24.715Z,3.70
2018-02-25T15:50:53.071Z,5.28
2018-02-25T15:53:22.077Z,6.05
2018-02-25T15:55:50.345Z,4.97
2018-02-25T15:58:19.365Z,4.65
2018-02-25T16:00:47.574Z,3.67
2018-02-25T16:03:15.810Z,4.75
2018-02-25T16:05:44.067Z,4.10
2018-02-25T16:08:13.041Z,3.80
2018-02-25T16:10:42.052Z,5.22
2018-02-25T16:13:11.044Z,5.70
2018-02-25T16:15:40.063Z,5.35
2018-02-25T16:18:08.281Z,4.07
2018-02-25T16:20:36.498Z,4.63
2018-02-25T16:23:04.808Z,4.15
2018-02-25T16:25:33.047Z,4.75
2018-02-25T16:28:01.290Z,4.17
2018-02-25T16:30:29.617Z,4.30
2018-02-25T16:32:57.893Z,6.18
2018-02-25T16:35:26.101Z,4.50
2018-02-25T16:37:55.115Z,5.25
2018-02-25T16:40:23.330Z,4.78
2018-02-25T16:42:51.600Z,3.92
2018-02-25T16:45:19.822Z,4.62
2018-02-25T16:47:48.081Z,4.40
2018-02-25T16:50:16.304Z,7.78
2018-02-25T16:52:44.611Z,5.95
2018-02-25T16:55:12.837Z,5.95
2018-02-25T16:57:41.069Z,4.43
2018-02-25T17:00:09.287Z,5.45
2018-02-25T17:02:37.612Z,6.78
2018-02-25T17:05:05.827Z,8.97
2018-02-25T17:07:34.063Z,4.53
2018-02-25T17:10:02.409Z,5.65
2018-02-25T17:12:30.600Z,6.18
2018-02-25T17:14:59.614Z,6.75
2018-02-25T17:17:27.854Z,7.50
2018-02-25T17:19:56.094Z,4.75
2018-02-25T17:22:24.363Z,6.53
2018-02-25T17:24:52.583Z,8.25
2018-02-25T17:27:20.866Z,6.97
2018-02-25T17:29:49.904Z,9.77
2018-02-25T17:32:18.162Z,9.38
2018-02-25T17:34:46.405Z,9.13
2018-02-25T17:37:14.664Z,14.45
2018-02-25T17:39:42.899Z,11.85
2018-02-25T17:42:11.175Z,7.80
2018-02-25T17:44:39.451Z,6.62
2018-02-25T17:47:08.447Z,7.18
2018-02-25T17:49:36.723Z,7.12
2018-02-25T17:52:04.955Z,6.75
2018-02-25T17:54:33.176Z,7.33
2018-02-25T17:57:01.423Z,7.15
2018-02-25T17:59:30.409Z,7.55
2018-02-25T18:01:59.471Z,8.10
2018-02-25T18:04:27.714Z,7.95
2018-02-25T18:06:55.967Z,10.30
2018-02-25T18:09:24.292Z,9.73
2018-02-25T18:11:52.585Z,9.80
2018-02-25T18:14:20.914Z,8.43
2018-02-25T18:16:49.142Z,8.43
2018-02-25T18:19:17.477Z,8.05
2018-02-25T18:21:45.790Z,14.43
2018-02-25T18:24:14.112Z,8.90
2018-02-25T18:26:43.107Z,9.35
2018-02-25T18:29:11.418Z,9.65
2018-02-25T18:31:39.648Z,10.98
2018-02-25T18:34:08.662Z,9.05
2018-02-25T18:36:36.890Z,10.25
2018-02-25T18:39:05.166Z,12.13
2018-02-25T18:41:34.928Z,9.87
2018-02-25T18:44:03.160Z,9.02
2018-02-25T18:46:31.487Z,22.10
2018-02-25T18:48:59.765Z,15.88
2018-02-25T18:51:28.028Z,12.80
2018-02-25T18:53:56.281Z,11.97
2018-02-25T18:56:25.296Z,9.57
2018-02-25T18:58:53.536Z,11.95
2018-02-25T19:01:21.796Z,9.95
2018-02-25T19:03:50.142Z,9.43
2018-02-25T19:06:18.429Z,9.25
2018-02-25T19:08:46.694Z,11.55
2018-02-25T19:11:15.706Z,8.55
2018-02-25T19:13:43.965Z,10.43
2018-02-25T19:16:12.205Z,8.05
2018-02-25T19:18:40.430Z,9.35
2018-02-25T19:21:08.686Z,9.83
2018-02-25T19:23:36.966Z,9.30
2018-02-25T19:26:05.243Z,9.32
2018-02-25T19:28:33.468Z,7.60
2018-02-25T19:31:01.719Z,7.95
2018-02-25T19:33:30.098Z,6.78
2018-02-25T19:36:04.127Z,8.93
2018-02-25T19:38:38.005Z,10.23
2018-02-25T19:41:12.137Z,8.77
2018-02-25T19:43:40.401Z,8.35
2018-02-25T19:46:08.665Z,11.20
2018-02-25T19:48:36.880Z,8.23
2018-02-25T19:51:05.095Z,9.63
2018-02-25T19:53:33.549Z,11.00
2018-02-25T19:56:01.864Z,7.57
2018-02-25T19:58:30.141Z,8.38
2018-02-25T20:00:58.384Z,7.10
2018-02-25T20:03:26.633Z,11.00
2018-02-25T20:05:54.866Z,8.60
2018-02-25T20:08:23.098Z,13.10
2018-02-25T20:10:51.436Z,9.20
2018-02-25T20:13:19.675Z,10.27
2018-02-25T20:15:48.669Z,8.43
2018-02-25T20:18:17.689Z,8.47
2018-02-25T20:20:45.906Z,7.53
2018-02-25T20:23:14.168Z,7.90
2018-02-25T20:25:42.507Z,8.73
2018-02-25T20:28:10.802Z,8.02
2018-02-25T20:30:39.031Z,8.13
2018-02-25T20:33:08.073Z,9.63
2018-02-25T20:35:36.361Z,7.70
2018-02-25T20:38:04.595Z,8.65
2018-02-25T20:40:33.609Z,8.00
2018-02-25T20:43:01.887Z,7.43
2018-02-25T20:45:30.225Z,9.37
2018-02-25T20:47:58.434Z,11.00
2018-02-25T20:50:26.718Z,8.88
2018-02-25T20:52:54.956Z,7.68
2018-02-25T20:55:23.168Z,9.77
2018-02-25T20:57:51.397Z,8.70
2018-02-25T21:00:19.672Z,9.27
2018-02-25T21:02:47.946Z,8.25
2018-02-25T21:05:16.351Z,9.48
2018-02-25T21:07:44.558Z,7.70
2018-02-25T21:10:12.939Z,8.83
2018-02-25T21:12:41.219Z,8.15
2018-02-25T21:15:09.463Z,7.72
2018-02-25T21:17:38.489Z,10.75
2018-02-25T21:20:07.547Z,8.15
2018-02-25T21:22:36.434Z,9.02
2018-02-25T21:25:05.469Z,10.93
2018-02-25T21:27:33.696Z,9.00
2018-02-25T21:30:01.943Z,9.25
2018-02-25T21:32:30.178Z,12.95
2018-02-25T21:34:58.458Z,10.03
2018-02-25T21:37:26.741Z,10.02
2018-02-25T21:39:55.014Z,8.90
2018-02-25T21:42:23.252Z,8.90
2018-02-25T21:44:51.571Z,30.48
2018-02-25T21:47:19.803Z,30.27
2018-02-25T21:49:48.044Z,23.27
2018-02-25T21:52:16.286Z,10.13
2018-02-25T21:54:50.227Z,10.73
2018-02-25T21:57:24.256Z,10.20
2018-02-25T21:59:58.221Z,11.68
2018-02-25T22:02:32.099Z,9.75
2018-02-25T22:05:01.121Z,15.77
2018-02-25T22:07:29.379Z,11.12
2018-02-25T22:09:58.378Z,10.50
2018-02-25T22:12:27.539Z,12.02
2018-02-25T22:14:55.782Z,12.88
2018-02-25T22:17:24.004Z,11.60
2018-02-25T22:19:52.324Z,14.40
2018-02-25T22:22:20.561Z,13.62
2018-02-25T22:24:48.797Z,12.43
2018-02-25T22:27:17.021Z,12.95
2018-02-25T22:29:46.101Z,12.00
2018-02-25T22:32:14.330Z,15.23
2018-02-25T22:34:42.612Z,13.70
2018-02-25T22:37:10.846Z,15.85
2018-02-25T22:39:39.843Z,11.75
2018-02-25T22:42:08.855Z,12.50
2018-02-25T22:44:37.080Z,14.33
2018-02-25T22:47:05.329Z,13.48
2018-02-25T22:49:33.581Z,15.10
2018-02-25T22:52:01.844Z,14.27
2018-02-25T22:54:30.825Z,13.32
2018-02-25T22:56:59.818Z,14.77
2018-02-25T22:59:28.919Z,13.90
2018-02-25T23:01:57.920Z,16.70
2018-02-25T23:04:26.933Z,15.48
2018-02-25T23:06:55.178Z,13.40
2018-02-25T23:09:23.489Z,14.82
2018-02-25T23:11:51.774Z,13.77
2018-02-25T23:14:20.793Z,13.75
2018-02-25T23:16:49.040Z,12.35
2018-02-25T23:19:17.318Z,13.10
2018-02-25T23:21:45.634Z,13.00
2018-02-25T23:24:13.862Z,13.27
2018-02-25T23:26:42.146Z,12.07
2018-02-25T23:29:11.143Z,13.40
2018-02-25T23:31:39.498Z,12.95
2018-02-25T23:34:07.780Z,17.95
2018-02-25T23:36:36.058Z,15.73
2018-02-25T23:39:05.075Z,11.52
2018-02-25T23:41:33.326Z,11.35
2018-02-25T23:44:02.412Z,12.63
2018-02-25T23:46:31.389Z,12.27
2018-02-25T23:48:59.655Z,11.02
2018-02-25T23:51:27.918Z,13.18
2018-02-25T23:53:56.142Z,11.95
2018-02-25T23:56:25.130Z,10.27
2018-02-25T23:58:54.140Z,11.60
